Time;durP1;ratioP1;P1;durP2;ratioP2;P2;SDS_P1;SDS_P2;PMS_P1;PMS_P2;Temp;Humidity;BMP_temperature;BMP_pressure;BME280_temperature;BME280_humidity;BME280_pressure;Samples;Min_cycle;Max_cycle;Signal;HPM_P1;HPM_P2
2024/04/01 00:01:42;;;;;;;2.00;1.20;;;;;9.30;98768.00;;;;10373344;28;20238;-76
2024/04/01 00:06:43;;;;;;;2.63;1.10;;;;;9.30;98773.00;;;;10381765;28;20230;-77
2024/04/01 00:11:45;;;;;;;3.13;1.17;;;;;9.30;98762.00;;;;10373347;28;20234;-75
2024/04/01 00:16:46;;;;;;;2.10;1.10;;;;;9.30;98762.00;;;;10361663;28;20396;-76
2024/04/01 00:21:47;;;;;;;0.87;0.50;;;;;9.40;98744.00;;;;10396361;28;20745;-76
2024/04/01 00:26:47;;;;;;;2.10;0.70;;;;;9.50;98740.00;;;;10380896;28;20228;-77
2024/04/01 00:31:48;;;;;;;0.97;0.70;;;;;9.50;98734.00;;;;10379914;28;20254;-78
2024/04/01 00:36:49;;;;;;;0.80;0.63;;;;;9.50;98736.00;;;;10393676;28;20217;-77
2024/04/01 00:41:50;;;;;;;0.53;0.40;;;;;9.50;98736.00;;;;10370809;28;20227;-75
2024/04/01 00:46:51;;;;;;;0.90;0.70;;;;;9.50;98734.00;;;;10366745;28;20311;-75
2024/04/01 00:51:53;;;;;;;0.80;0.80;;;;;9.50;98749.00;;;;10363354;28;20230;-79
2024/04/01 00:56:55;;;;;;;0.80;0.63;;;;;9.40;98744.00;;;;10367562;28;20230;-80
2024/04/01 01:01:56;;;;;;;3.03;1.03;;;;;9.40;98748.00;;;;10398646;28;20218;-88
2024/04/01 01:06:58;;;;;;;1.30;0.73;;;;;9.30;98755.00;;;;10363569;28;20249;-87
2024/04/01 01:11:59;;;;;;;0.97;0.60;;;;;9.30;98750.00;;;;10416672;28;20253;-80
2024/04/01 01:17:01;;;;;;;0.83;0.70;;;;;9.30;98747.00;;;;10394645;28;20227;-84
2024/04/01 01:22:04;;;;;;;0.97;0.60;;;;;9.20;98746.00;;;;10368643;28;20290;-86
2024/04/01 01:27:05;;;;;;;3.17;0.70;;;;;9.20;98740.00;;;;10382154;28;20271;-83
2024/04/01 01:32:06;;;;;;;0.60;0.50;;;;;9.30;98747.00;;;;10363180;28;20263;-86
2024/04/01 01:37:07;;;;;;;2.13;0.53;;;;;9.30;98751.00;;;;10372138;28;20292;-87
2024/04/01 01:42:08;;;;;;;2.07;0.70;;;;;9.40;98749.00;;;;10352386;28;20226;-86
2024/04/01 01:47:10;;;;;;;1.17;0.80;;;;;9.40;98758.00;;;;10359904;28;20222;-87
2024/04/01 01:52:11;;;;;;;0.80;0.63;;;;;9.40;98753.00;;;;10383469;28;20217;-87
2024/04/01 01:57:12;;;;;;;0.80;0.80;;;;;9.30;98750.00;;;;10380508;28;20253;-87
2024/04/01 02:02:13;;;;;;;1.33;0.60;;;;;9.20;98750.00;;;;10363549;28;20221;-86
2024/04/01 02:07:14;;;;;;;1.17;0.43;;;;;9.20;98748.00;;;;10365756;28;20234;-86
2024/04/01 02:12:15;;;;;;;0.93;0.60;;;;;9.20;98758.00;;;;10389951;28;20218;-78
2024/04/01 02:17:16;;;;;;;1.80;0.87;;;;;9.30;98777.00;;;;10381270;28;20811;-78
2024/04/01 02:22:22;;;;;;;1.40;0.67;;;;;9.30;98776.00;;;;10373075;28;20248;-79
2024/04/01 02:27:23;;;;;;;1.53;0.60;;;;;9.20;98774.00;;;;10378733;28;20309;-78
2024/04/01 02:32:24;;;;;;;2.03;0.80;;;;;9.20;98778.00;;;;10378121;28;20657;-79
2024/04/01 02:37:25;;;;;;;0.80;0.70;;;;;9.10;98773.00;;;;10392643;28;20222;-78
2024/04/01 02:42:26;;;;;;;0.93;0.70;;;;;9.00;98786.00;;;;10383378;28;20215;-78
2024/04/01 02:47:27;;;;;;;2.13;0.70;;;;;8.90;98793.00;;;;10375860;28;20218;-78
2024/04/01 02:52:28;;;;;;;1.37;0.83;;;;;8.80;98784.00;;;;10380223;28;20850;-78
2024/04/01 02:57:29;;;;;;;2.20;1.00;;;;;8.70;98766.00;;;;10397380;28;20312;-78
2024/04/01 03:02:29;;;;;;;2.33;0.93;;;;;8.70;98780.00;;;;10379979;28;20214;-79
2024/04/01 03:07:30;;;;;;;1.53;0.80;;;;;8.60;98762.00;;;;10379545;28;20271;-78
2024/04/01 03:12:31;;;;;;;1.53;1.00;;;;;8.60;98761.00;;;;10377061;28;20264;-78
2024/04/01 03:17:32;;;;;;;1.50;1.10;;;;;8.60;98757.00;;;;10359775;28;20223;-79
2024/04/01 03:22:33;;;;;;;2.37;1.10;;;;;8.50;98762.00;;;;10356680;28;20849;-80
2024/04/01 03:27:34;;;;;;;2.20;1.20;;;;;8.50;98763.00;;;;10380044;28;20221;-80
2024/04/01 03:32:36;;;;;;;2.83;1.30;;;;;8.50;98769.00;;;;10387902;28;20214;-80
2024/04/01 03:37:37;;;;;;;3.20;1.37;;;;;8.50;98785.00;;;;10375213;28;20301;-79
2024/04/01 03:42:38;;;;;;;3.40;1.30;;;;;8.50;98777.00;;;;10389839;28;20236;-79
2024/04/01 03:47:39;;;;;;;2.87;1.90;;;;;8.50;98774.00;;;;10356857;28;20226;-79
2024/04/01 03:52:40;;;;;;;2.93;1.97;;;;;8.50;98780.00;;;;10357288;28;20697;-79
2024/04/01 03:57:41;;;;;;;3.13;1.70;;;;;8.50;98787.00;;;;10355761;28;20573;-80
2024/04/01 04:02:42;;;;;;;3.73;1.70;;;;;8.50;98773.00;;;;10354339;28;20633;-79
2024/04/01 04:07:43;;;;;;;2.73;2.00;;;;;8.40;98765.00;;;;10363591;28;20225;-79
2024/04/01 04:12:44;;;;;;;4.17;2.50;;;;;8.40;98766.00;;;;10394052;28;20226;-79
2024/04/01 04:17:45;;;;;;;3.63;2.07;;;;;8.40;98773.00;;;;10385477;28;20324;-79
2024/04/01 04:22:46;;;;;;;2.93;2.60;;;;;8.50;98770.00;;;;10355856;28;20233;-79
2024/04/01 04:27:47;;;;;;;6.53;2.57;;;;;8.50;98780.00;;;;10397250;28;20231;-79
2024/04/01 04:32:48;;;;;;;3.20;2.73;;;;;8.50;98786.00;;;;10389528;28;20231;-79
2024/04/01 04:37:49;;;;;;;4.17;3.07;;;;;8.50;98773.00;;;;10375931;28;20232;-79
2024/04/01 04:42:51;;;;;;;5.70;3.27;;;;;8.60;98784.00;;;;10370401;28;20288;-79
2024/04/01 04:47:52;;;;;;;5.47;3.50;;;;;8.60;98793.00;;;;10362022;28;20218;-79
2024/04/01 04:52:53;;;;;;;7.73;3.57;;;;;8.70;98813.00;;;;10392648;28;20221;-78
2024/04/01 04:57:54;;;;;;;6.80;4.13;;;;;8.70;98824.00;;;;10370910;28;20222;-79
2024/04/01 05:02:55;;;;;;;4.27;3.10;;;;;8.70;98826.00;;;;10360548;28;20577;-79
2024/04/01 05:07:56;;;;;;;4.80;3.50;;;;;8.70;98829.00;;;;10381213;28;20222;-80
2024/04/01 05:12:57;;;;;;;6.17;4.20;;;;;8.70;98824.00;;;;10361161;28;20641;-78
2024/04/01 05:17:58;;;;;;;5.63;3.60;;;;;8.60;98830.00;;;;10360333;28;20586;-80
2024/04/01 05:23:01;;;;;;;4.53;3.87;;;;;8.60;98833.00;;;;10385403;28;20301;-79
2024/04/01 05:28:02;;;;;;;7.00;3.63;;;;;8.60;98837.00;;;;10356685;28;20225;-79
2024/04/01 05:33:03;;;;;;;5.47;3.90;;;;;8.60;98853.00;;;;10373497;28;20617;-79
2024/04/01 05:38:04;;;;;;;5.73;3.60;;;;;8.50;98860.00;;;;10392006;28;20222;-79
2024/04/01 05:43:08;;;;;;;5.37;4.33;;;;;8.60;98868.00;;;;10383297;28;20635;-84
2024/04/01 05:48:09;;;;;;;5.67;3.80;;;;;8.60;98863.00;;;;10366028;28;20559;-85
2024/04/01 05:53:10;;;;;;;5.23;3.80;;;;;8.60;98868.00;;;;10380570;28;20269;-84
2024/04/01 05:58:11;;;;;;;4.00;3.10;;;;;8.70;98893.00;;;;10358696;28;20233;-85
2024/04/01 06:03:12;;;;;;;3.83;3.30;;;;;8.80;98917.00;;;;10382530;28;20212;-84
2024/04/01 06:08:13;;;;;;;5.17;3.43;;;;;8.90;98919.00;;;;10386161;28;20268;-85
2024/04/01 06:13:14;;;;;;;5.63;3.80;;;;;9.00;98941.00;;;;10384605;28;20222;-83
2024/04/01 06:18:15;;;;;;;5.67;3.50;;;;;9.00;98930.00;;;;10394049;28;20226;-84
2024/04/01 06:23:16;;;;;;;4.00;2.93;;;;;9.20;98946.00;;;;10348052;28;20781;-86
2024/04/01 06:28:17;;;;;;;5.20;3.50;;;;;9.30;98954.00;;;;10375357;28;20217;-82
2024/04/01 06:33:18;;;;;;;7.57;3.73;;;;;9.40;98953.00;;;;10377522;28;20219;-84
2024/04/01 06:38:19;;;;;;;5.03;3.30;;;;;9.40;98953.00;;;;10365701;28;20278;-85
2024/04/01 06:43:19;;;;;;;4.03;2.73;;;;;9.50;98953.00;;;;10368523;28;20231;-80
2024/04/01 06:48:22;;;;;;;5.47;3.30;;;;;9.60;98967.00;;;;10371000;28;20245;-85
2024/04/01 06:53:24;;;;;;;4.67;3.30;;;;;9.70;98970.00;;;;10380631;28;20912;-77
2024/04/01 06:58:24;;;;;;;4.50;3.00;;;;;9.90;98968.00;;;;10373800;28;20230;-78
2024/04/01 07:03:25;;;;;;;3.73;2.90;;;;;10.00;98989.00;;;;10381346;28;20647;-77
2024/04/01 07:08:27;;;;;;;4.10;2.70;;;;;10.10;98986.00;;;;10372755;28;20617;-77
2024/04/01 07:13:28;;;;;;;3.93;2.80;;;;;10.30;98979.00;;;;10377111;28;20224;-78
2024/04/01 07:18:30;;;;;;;4.57;2.70;;;;;10.40;98994.00;;;;10384601;28;20229;-77
2024/04/01 07:23:31;;;;;;;5.27;2.30;;;;;10.50;99003.00;;;;10360290;28;20666;-77
2024/04/01 07:28:32;;;;;;;3.40;2.17;;;;;10.60;99000.00;;;;10368717;28;20234;-77
2024/04/01 07:33:33;;;;;;;4.63;2.67;;;;;10.70;99009.00;;;;10395945;28;20229;-77
2024/04/01 07:38:34;;;;;;;2.77;2.50;;;;;10.70;99021.00;;;;10393221;28;20226;-77
2024/04/01 07:43:35;;;;;;;2.17;1.93;;;;;10.60;99023.00;;;;10374815;28;20257;-77
2024/04/01 07:48:39;;;;;;;4.53;2.43;;;;;10.60;99033.00;;;;10371670;28;20221;-78
2024/04/01 07:53:40;;;;;;;2.97;2.20;;;;;10.60;99044.00;;;;10391857;28;20260;-78
2024/04/01 07:58:42;;;;;;;6.17;2.37;;;;;10.60;99036.00;;;;10371926;28;20320;-79
2024/04/01 08:03:43;;;;;;;5.80;2.33;;;;;10.60;99044.00;;;;10367413;28;20286;-77
2024/04/01 08:08:44;;;;;;;4.37;2.13;;;;;10.60;99053.00;;;;10354263;28;20226;-76
2024/04/01 08:13:45;;;;;;;5.80;2.33;;;;;10.60;99058.00;;;;10375948;28;20218;-76
2024/04/01 08:18:45;;;;;;;2.23;1.80;;;;;10.70;99065.00;;;;10381452;28;20795;-76
2024/04/01 08:23:46;;;;;;;2.70;2.43;;;;;10.80;99076.00;;;;10344038;28;20218;-76
2024/04/01 08:28:50;;;;;;;5.17;2.40;;;;;10.90;99081.00;;;;10364238;28;20221;-76
2024/04/01 08:33:52;;;;;;;2.80;2.03;;;;;11.00;99087.00;;;;10383003;28;21000;-76
2024/04/01 08:38:53;;;;;;;3.53;2.40;;;;;11.10;99082.00;;;;10380968;28;20221;-77
2024/04/01 08:44:15;;;;;;;3.97;2.37;;;;;11.20;99095.00;;;;10380047;28;20259;-76
2024/04/01 08:49:49;;;;;;;3.03;2.20;;;;;11.40;99103.00;;;;10368537;28;20862;-77
2024/04/01 08:54:51;;;;;;;4.43;2.30;;;;;11.50;99102.00;;;;10372793;28;20253;-76
2024/04/01 08:59:52;;;;;;;2.00;1.80;;;;;11.70;99102.00;;;;10366862;28;20231;-76
2024/04/01 09:04:54;;;;;;;4.87;1.70;;;;;11.80;99113.00;;;;10356855;28;20214;-76
2024/04/01 09:09:56;;;;;;;1.60;1.50;;;;;11.90;99107.00;;;;10371315;28;20229;-79
2024/04/01 09:14:56;;;;;;;2.90;2.07;;;;;11.90;99112.00;;;;10370065;28;20221;-80
2024/04/01 09:20:01;;;;;;;4.03;1.90;;;;;12.00;99117.00;;;;10372645;28;20297;-80
2024/04/01 09:25:03;;;;;;;2.83;1.90;;;;;12.30;99126.00;;;;10344361;28;20249;-79
2024/04/01 09:30:05;;;;;;;3.90;2.03;;;;;12.50;99124.00;;;;10354613;28;20867;-80
2024/04/01 09:35:06;;;;;;;2.33;1.80;;;;;12.80;99135.00;;;;10385516;28;20280;-79
2024/04/01 09:40:07;;;;;;;1.60;1.50;;;;;13.00;99146.00;;;;10374183;28;20226;-81
2024/04/01 09:45:08;;;;;;;2.47;1.93;;;;;13.20;99145.00;;;;10370445;28;20676;-80
2024/04/01 09:50:10;;;;;;;2.23;1.83;;;;;13.50;99152.00;;;;10359893;28;20225;-80
2024/04/01 09:55:23;;;;;;;3.03;1.70;;;;;13.70;99162.00;;;;10351858;28;20228;-80
2024/04/01 10:00:36;;;;;;;3.90;1.90;;;;;13.90;99167.00;;;;10373907;28;20221;-80
2024/04/01 10:06:03;;;;;;;2.03;1.23;;;;;14.00;99164.00;;;;10374641;28;20228;-80
2024/04/01 10:11:41;;;;;;;2.58;1.50;;;;;14.30;99184.00;;;;10395856;28;20574;-80
2024/04/01 10:17:21;;;;;;;3.17;1.85;;;;;14.60;99195.00;;;;10377842;28;20230;-80
2024/04/01 10:22:54;;;;;;;2.67;1.30;;;;;14.80;99206.00;;;;10375254;28;20229;-80
2024/04/01 10:28:11;;;;;;;3.72;1.35;;;;;14.90;99209.00;;;;10390990;28;20214;-80
2024/04/01 10:33:52;;;;;;;4.88;1.50;;;;;15.10;99217.00;;;;10384805;28;20310;-81
2024/04/01 10:39:36;;;;;;;1.45;1.35;;;;;15.20;99220.00;;;;10353481;28;20230;-80
2024/04/01 10:45:15;;;;;;;2.08;1.10;;;;;15.40;99235.00;;;;10372913;28;20225;-80
2024/04/01 10:50:19;;;;;;;2.95;1.50;;;;;15.50;99247.00;;;;10396946;28;21155;-80
2024/04/01 10:55:32;;;;;;;1.90;1.55;;;;;16.00;99248.00;;;;10382632;28;20230;-80
2024/04/01 11:00:51;;;;;;;5.00;1.13;;;;;16.50;99255.00;;;;10382758;28;20230;-80
2024/04/01 11:06:18;;;;;;;1.30;1.10;;;;;16.90;99262.00;;;;10380434;28;20224;-80
2024/04/01 11:11:56;;;;;;;1.85;1.30;;;;;17.30;99278.00;;;;10391505;28;20218;-80
2024/04/01 11:17:01;;;;;;;1.63;1.13;;;;;18.30;99267.00;;;;10377311;28;20219;-80
2024/04/01 11:22:04;;;;;;;2.33;0.95;;;;;18.90;99268.00;;;;10378668;28;20222;-80
2024/04/01 11:27:37;;;;;;;1.35;0.93;;;;;19.50;99270.00;;;;10377134;28;20313;-80
2024/04/01 11:32:45;;;;;;;3.55;1.00;;;;;20.00;99275.00;;;;10357493;28;20226;-80
2024/04/01 11:37:50;;;;;;;2.17;1.13;;;;;18.60;99278.00;;;;10396094;28;20237;-79
2024/04/01 11:42:58;;;;;;;2.50;1.27;;;;;17.10;99275.00;;;;10384962;28;20268;-79
2024/04/01 11:47:59;;;;;;;1.80;0.80;;;;;16.40;99265.00;;;;10385194;28;20218;-80
2024/04/01 11:53:03;;;;;;;1.50;0.70;;;;;17.40;99259.00;;;;10364368;28;20227;-79
2024/04/01 11:58:11;;;;;;;3.13;1.38;;;;;18.00;99273.00;;;;10364164;28;20768;-80
2024/04/01 12:03:12;;;;;;;3.30;0.82;;;;;19.30;99264.00;;;;10365322;28;20937;-79
2024/04/01 12:08:25;;;;;;;0.75;0.60;;;;;19.50;99274.00;;;;10367070;28;20769;-80
2024/04/01 12:13:27;;;;;;;2.60;1.00;;;;;18.40;99285.00;;;;10387293;28;20954;-80
2024/04/01 12:18:28;;;;;;;1.30;0.60;;;;;18.60;99282.00;;;;10365630;28;20219;-80
2024/04/01 12:23:29;;;;;;;1.33;0.70;;;;;19.20;99285.00;;;;10367139;28;20218;-80
2024/04/01 12:28:31;;;;;;;1.58;0.70;;;;;20.60;99286.00;;;;10383610;28;20225;-79
2024/04/01 12:33:35;;;;;;;2.15;0.82;;;;;21.10;99286.00;;;;10372167;28;20306;-80
2024/04/01 12:38:41;;;;;;;2.53;0.80;;;;;20.60;99289.00;;;;10378448;28;20230;-80
2024/04/01 12:43:43;;;;;;;3.45;0.65;;;;;20.80;99299.00;;;;10356277;28;20670;-80
2024/04/01 12:48:45;;;;;;;3.17;1.00;;;;;21.60;99288.00;;;;10363870;28;21019;-80
2024/04/01 12:54:13;;;;;;;1.48;0.52;;;;;21.90;99280.00;;;;10369817;28;20260;-81
2024/04/01 12:59:39;;;;;;;1.77;0.80;;;;;21.30;99294.00;;;;10345674;28;20230;-80
2024/04/01 13:04:58;;;;;;;3.22;0.88;;;;;20.90;99285.00;;;;10384629;28;20227;-80
2024/04/01 13:10:04;;;;;;;2.65;0.70;;;;;21.40;99288.00;;;;10368357;28;20213;-80
2024/04/01 13:15:05;;;;;;;1.30;0.50;;;;;21.20;99295.00;;;;10377687;28;20226;-80
2024/04/01 13:20:16;;;;;;;1.63;0.80;;;;;21.50;99310.00;;;;10351852;28;20229;-80
2024/04/01 13:25:34;;;;;;;2.38;0.50;;;;;21.20;99312.00;;;;10378470;28;20878;-79
2024/04/01 13:30:44;;;;;;;1.13;0.55;;;;;19.70;99313.00;;;;10392798;28;20321;-80
2024/04/01 13:35:55;;;;;;;1.38;0.60;;;;;19.60;99307.00;;;;10376417;28;20715;-81
2024/04/01 13:41:23;;;;;;;1.92;0.63;;;;;20.20;99305.00;;;;10384539;28;20298;-79
2024/04/01 13:46:51;;;;;;;1.48;0.40;;;;;20.30;99296.00;;;;10365137;28;20220;-80
2024/04/01 13:52:29;;;;;;;3.45;0.63;;;;;19.50;99311.00;;;;10362498;28;20216;-76
2024/04/01 13:58:09;;;;;;;2.63;0.52;;;;;19.10;99320.00;;;;10384066;28;20632;-79
2024/04/01 14:03:35;;;;;;;3.92;0.82;;;;;19.40;99312.00;;;;10380479;28;20271;-76
2024/04/01 14:09:07;;;;;;;1.85;0.63;;;;;19.80;99330.00;;;;10324089;28;20225;-76
2024/04/01 14:14:14;;;;;;;1.75;0.80;;;;;19.20;99326.00;;;;10368656;28;20218;-77
2024/04/01 14:19:26;;;;;;;1.75;0.70;;;;;19.60;99314.00;;;;10372833;28;20226;-78
2024/04/01 14:24:27;;;;;;;2.50;0.82;;;;;19.70;99316.00;;;;10380304;28;20701;-77
2024/04/01 14:29:29;;;;;;;4.55;0.90;;;;;19.70;99314.00;;;;10384401;28;20218;-76
2024/04/01 14:34:30;;;;;;;2.25;0.90;;;;;19.20;99296.00;;;;10376729;28;20227;-77
2024/04/01 14:39:32;;;;;;;0.68;0.68;;;;;20.20;99289.00;;;;10397753;28;20231;-76
2024/04/01 14:44:33;;;;;;;2.88;1.10;;;;;19.10;99325.00;;;;10392491;28;20975;-76
2024/04/01 14:49:34;;;;;;;1.05;0.82;;;;;19.00;99320.00;;;;10362736;28;20284;-78
2024/04/01 14:54:36;;;;;;;2.88;0.50;;;;;19.60;99310.00;;;;10347982;28;20214;-77
2024/04/01 14:59:38;;;;;;;1.13;0.50;;;;;19.30;99342.00;;;;10388858;28;20226;-76
2024/04/01 15:04:41;;;;;;;1.05;0.60;;;;;18.00;99335.00;;;;10374218;28;20221;-78
2024/04/01 15:09:42;;;;;;;2.20;0.70;;;;;18.10;99336.00;;;;10362017;28;20300;-79
2024/04/01 15:14:50;;;;;;;2.80;0.77;;;;;19.30;99328.00;;;;10392722;28;20280;-78
2024/04/01 15:19:53;;;;;;;1.55;0.70;;;;;18.80;99344.00;;;;10362592;28;20268;-78
2024/04/01 15:24:55;;;;;;;1.35;0.80;;;;;17.80;99343.00;;;;10386184;28;20214;-78
2024/04/01 15:29:57;;;;;;;5.50;0.90;;;;;17.50;99355.00;;;;10400291;28;20218;-78
2024/04/01 15:34:58;;;;;;;3.22;1.00;;;;;17.70;99344.00;;;;10376372;28;20253;-79
2024/04/01 15:40:03;;;;;;;1.27;0.50;;;;;18.90;99344.00;;;;10386511;28;20244;-81
2024/04/01 15:45:08;;;;;;;0.73;0.50;;;;;18.30;99355.00;;;;10390846;28;20213;-78
2024/04/01 15:50:09;;;;;;;0.93;0.50;;;;;16.70;99353.00;;;;10380248;28;20213;-77
2024/04/01 15:55:10;;;;;;;2.25;0.60;;;;;16.20;99360.00;;;;10387514;28;20219;-78
2024/04/01 16:00:12;;;;;;;1.75;0.50;;;;;15.80;99361.00;;;;10384822;28;20325;-79
2024/04/01 16:05:16;;;;;;;2.05;0.90;;;;;15.60;99362.00;;;;10384378;28;20214;-78
2024/04/01 16:10:23;;;;;;;3.55;0.75;;;;;15.40;99362.00;;;;10359208;28;20226;-80
2024/04/01 16:15:30;;;;;;;2.10;0.80;;;;;15.30;99371.00;;;;10388511;28;20233;-79
2024/04/01 16:20:33;;;;;;;1.77;0.70;;;;;15.10;99368.00;;;;10392392;28;20660;-79
2024/04/01 16:25:36;;;;;;;3.13;0.90;;;;;15.30;99381.00;;;;10371030;28;21015;-79
2024/04/01 16:30:43;;;;;;;1.10;0.65;;;;;15.20;99388.00;;;;10401881;28;20224;-79
2024/04/01 16:35:44;;;;;;;3.17;0.70;;;;;15.00;99383.00;;;;10379063;28;20226;-79
2024/04/01 16:40:48;;;;;;;3.38;0.75;;;;;15.20;99388.00;;;;10356419;28;20218;-77
2024/04/01 16:45:49;;;;;;;2.65;0.88;;;;;15.30;99398.00;;;;10378079;28;20223;-78
2024/04/01 16:50:51;;;;;;;1.58;0.73;;;;;15.10;99394.00;;;;10376410;28;20224;-79
2024/04/01 16:55:53;;;;;;;4.50;0.95;;;;;14.70;99419.00;;;;10361223;28;20225;-79
2024/04/01 17:00:54;;;;;;;2.30;0.60;;;;;14.80;99409.00;;;;10376898;28;20221;-79
2024/04/01 17:05:56;;;;;;;2.60;0.70;;;;;14.50;99415.00;;;;10368472;28;20218;-80
2024/04/01 17:10:57;;;;;;;1.70;0.68;;;;;14.20;99413.00;;;;10380280;28;20229;-81
2024/04/01 17:15:59;;;;;;;2.47;0.98;;;;;14.00;99418.00;;;;10382408;28;20268;-80
2024/04/01 17:21:01;;;;;;;2.67;1.25;;;;;13.70;99412.00;;;;10377432;28;20613;-81
2024/04/01 17:26:03;;;;;;;1.20;0.60;;;;;13.60;99428.00;;;;10366461;28;20214;-82
2024/04/01 17:31:05;;;;;;;4.57;0.73;;;;;13.40;99430.00;;;;10356516;28;20215;-80
2024/04/01 17:36:07;;;;;;;2.67;0.98;;;;;13.30;99434.00;;;;10365011;28;20274;-80
2024/04/01 17:41:09;;;;;;;3.17;1.07;;;;;13.20;99438.00;;;;10378242;28;20232;-80
2024/04/01 17:46:11;;;;;;;2.13;0.60;;;;;13.00;99442.00;;;;10358687;28;20225;-81
2024/04/01 17:51:12;;;;;;;2.85;1.27;;;;;12.80;99453.00;;;;10372361;28;20854;-81
2024/04/01 17:56:13;;;;;;;1.50;0.87;;;;;12.70;99457.00;;;;10378322;28;20281;-80
2024/04/01 18:01:15;;;;;;;1.23;0.57;;;;;12.50;99454.00;;;;10374299;28;20221;-82
2024/04/01 18:06:16;;;;;;;2.57;0.70;;;;;12.50;99458.00;;;;10401424;28;20669;-81
2024/04/01 18:11:21;;;;;;;3.23;0.83;;;;;12.40;99466.00;;;;10360462;28;20230;-80
2024/04/01 18:16:23;;;;;;;2.10;0.90;;;;;12.30;99469.00;;;;10380980;28;20236;-80
2024/04/01 18:21:25;;;;;;;3.90;1.03;;;;;12.20;99475.00;;;;10367222;28;20226;-80
2024/04/01 18:26:26;;;;;;;1.37;0.70;;;;;12.10;99471.00;;;;10359080;28;20221;-81
2024/04/01 18:31:27;;;;;;;3.90;1.27;;;;;12.00;99485.00;;;;10372546;28;20222;-82
2024/04/01 18:36:29;;;;;;;0.63;0.60;;;;;11.90;99493.00;;;;10395954;28;20229;-81
2024/04/01 18:41:30;;;;;;;2.17;0.70;;;;;11.90;99489.00;;;;10364548;28;20229;-81
2024/04/01 18:46:31;;;;;;;1.80;0.80;;;;;12.00;99514.00;;;;10391988;28;20217;-81
2024/04/01 18:51:32;;;;;;;2.53;0.80;;;;;12.10;99518.00;;;;10372946;28;20581;-82
2024/04/01 18:56:34;;;;;;;2.13;0.70;;;;;12.00;99534.00;;;;10396985;28;20230;-80
2024/04/01 19:01:36;;;;;;;1.20;0.50;;;;;11.90;99544.00;;;;10365202;28;20222;-81
2024/04/01 19:06:42;;;;;;;0.40;0.40;;;;;11.60;99543.00;;;;10403125;28;20221;-81
2024/04/01 19:11:43;;;;;;;1.80;0.80;;;;;11.30;99544.00;;;;10363370;28;20693;-82
2024/04/01 19:16:44;;;;;;;1.63;0.60;;;;;10.60;99551.00;;;;10361057;28;20227;-83
2024/04/01 19:21:45;;;;;;;1.70;0.80;;;;;10.10;99561.00;;;;10399421;28;20226;-82
2024/04/01 19:26:46;;;;;;;1.37;0.60;;;;;9.80;99549.00;;;;10373175;28;20345;-81
2024/04/01 19:31:47;;;;;;;1.07;0.50;;;;;9.60;99549.00;;;;10367732;28;20756;-81
2024/04/01 19:36:49;;;;;;;0.90;0.60;;;;;9.50;99551.00;;;;10386496;28;20277;-82
2024/04/01 19:41:50;;;;;;;2.73;1.30;;;;;9.50;99564.00;;;;10385304;28;20741;-82
2024/04/01 19:46:51;;;;;;;4.03;1.20;;;;;9.40;99556.00;;;;10373500;28;20876;-82
2024/04/01 19:51:52;;;;;;;4.73;1.50;;;;;9.40;99555.00;;;;10359991;28;20606;-78
2024/04/01 19:56:53;;;;;;;0.90;0.70;;;;;9.30;99556.00;;;;10379617;28;20275;-78
2024/04/01 20:01:56;;;;;;;3.70;0.67;;;;;9.20;99567.00;;;;10360716;28;20554;-78
2024/04/01 20:06:57;;;;;;;1.20;0.67;;;;;9.40;99570.00;;;;10383338;28;21018;-80
2024/04/01 20:11:58;;;;;;;2.13;1.20;;;;;9.50;99571.00;;;;10358271;28;20225;-79
2024/04/01 20:16:59;;;;;;;1.27;0.80;;;;;9.60;99557.00;;;;10384693;28;20735;-79
2024/04/01 20:22:01;;;;;;;3.20;1.10;;;;;9.60;99563.00;;;;10375199;28;20218;-79
2024/04/01 20:27:03;;;;;;;3.00;2.70;;;;;9.60;99562.00;;;;10385907;28;20222;-78
2024/04/01 20:32:14;;;;;;;1.70;1.00;;;;;9.50;99566.00;;;;10361651;28;20686;-78
2024/04/01 20:37:16;;;;;;;1.20;1.10;;;;;9.50;99583.00;;;;10382422;28;20815;-79
2024/04/01 20:42:18;;;;;;;1.37;1.13;;;;;9.50;99581.00;;;;10361219;28;20214;-78
2024/04/01 20:47:23;;;;;;;2.53;0.70;;;;;9.50;99574.00;;;;10356521;28;20920;-77
2024/04/01 20:52:44;;;;;;;2.50;1.30;;;;;9.60;99575.00;;;;10370938;28;20222;-79
2024/04/01 20:57:46;;;;;;;3.30;1.40;;;;;9.50;99573.00;;;;10399322;28;20233;-79
2024/04/01 21:02:50;;;;;;;2.80;1.13;;;;;9.50;99573.00;;;;10359189;28;20230;-79
2024/04/01 21:07:51;;;;;;;2.40;0.90;;;;;9.50;99571.00;;;;10365447;28;20238;-79
2024/04/01 21:12:53;;;;;;;1.73;0.97;;;;;9.50;99576.00;;;;10371309;28;20217;-82
2024/04/01 21:17:54;;;;;;;1.80;1.07;;;;;9.40;99588.00;;;;10385968;28;20226;-83
2024/04/01 21:22:55;;;;;;;3.57;0.97;;;;;9.20;99585.00;;;;10371544;28;20222;-82
2024/04/01 21:27:56;;;;;;;2.27;1.03;;;;;9.10;99592.00;;;;10369889;28;20218;-82
2024/04/01 21:32:57;;;;;;;2.03;0.97;;;;;9.10;99597.00;;;;10367558;28;20627;-83
2024/04/01 21:37:58;;;;;;;2.47;1.50;;;;;9.00;99592.00;;;;10357403;28;20226;-82
2024/04/01 21:42:59;;;;;;;1.20;1.03;;;;;9.00;99607.00;;;;10381626;28;20225;-82
2024/04/01 21:48:01;;;;;;;2.00;1.37;;;;;8.90;99605.00;;;;10363605;28;20234;-82
2024/04/01 21:53:02;;;;;;;3.07;1.10;;;;;8.90;99611.00;;;;10396237;28;20222;-82
2024/04/01 21:58:03;;;;;;;2.23;1.10;;;;;8.80;99614.00;;;;10360037;28;20257;-82
2024/04/01 22:03:04;;;;;;;3.67;1.17;;;;;8.70;99611.00;;;;10364836;28;20704;-82
2024/04/01 22:08:05;;;;;;;1.90;1.00;;;;;8.70;99616.00;;;;10372757;28;20244;-82
2024/04/01 22:13:06;;;;;;;3.37;1.10;;;;;8.70;99620.00;;;;10353694;28;20225;-82
2024/04/01 22:18:07;;;;;;;2.23;1.20;;;;;8.60;99627.00;;;;10384653;28;20313;-82
2024/04/01 22:23:08;;;;;;;1.83;0.93;;;;;8.50;99628.00;;;;10376728;28;20230;-83
2024/04/01 22:28:09;;;;;;;3.00;1.27;;;;;8.50;99642.00;;;;10385503;28;20222;-83
2024/04/01 22:33:11;;;;;;;3.03;1.10;;;;;8.50;99644.00;;;;10369230;28;20225;-83
2024/04/01 22:38:12;;;;;;;2.13;0.80;;;;;8.50;99641.00;;;;10372859;28;20249;-81
2024/04/01 22:43:13;;;;;;;3.50;1.00;;;;;8.60;99640.00;;;;10378377;28;20225;-83
2024/04/01 22:48:14;;;;;;;1.07;0.90;;;;;8.60;99653.00;;;;10380540;28;20242;-82
2024/04/01 22:53:15;;;;;;;2.13;0.73;;;;;8.70;99656.00;;;;10392070;28;20230;-83
2024/04/01 22:58:16;;;;;;;3.83;1.20;;;;;8.70;99663.00;;;;10385572;28;20229;-82
2024/04/01 23:03:17;;;;;;;2.23;1.13;;;;;8.70;99662.00;;;;10390632;28;20582;-83
2024/04/01 23:08:18;;;;;;;2.57;1.33;;;;;8.70;99667.00;;;;10387480;28;20232;-83
2024/04/01 23:13:19;;;;;;;2.50;1.13;;;;;8.70;99666.00;;;;10358271;28;20226;-84
2024/04/01 23:18:20;;;;;;;3.70;1.40;;;;;8.70;99662.00;;;;10369034;28;20223;-82
2024/04/01 23:23:21;;;;;;;2.17;1.10;;;;;8.60;99675.00;;;;10390430;28;20225;-81
2024/04/01 23:28:22;;;;;;;2.97;1.20;;;;;8.70;99681.00;;;;10345864;28;20219;-83
2024/04/01 23:33:23;;;;;;;3.80;1.83;;;;;8.70;99690.00;;;;10392523;28;20278;-80
2024/04/01 23:38:24;;;;;;;4.30;1.10;;;;;8.70;99701.00;;;;10369789;28;20237;-80
2024/04/01 23:43:25;;;;;;;3.40;1.20;;;;;8.60;99701.00;;;;10362041;28;20252;-80
2024/04/01 23:48:26;;;;;;;3.73;1.20;;;;;8.60;99703.00;;;;10368226;28;20259;-80
2024/04/01 23:53:28;;;;;;;2.73;1.30;;;;;8.70;99706.00;;;;10383647;28;20734;-81
2024/04/01 23:58:30;;;;;;;3.90;1.30;;;;;8.70;99700.00;;;;10364017;28;20234;-81
